Hlavní strana
METAR-TAF:

METAR-TAF

Letiště :

Jakutsk, Rusko

zeměpisná šířka: 62-01N, zeměpisná délka: 129-43E, výška: 103 m

Aktuální stav počasí

Zpráva byla vytvořena před 23 minutami, v 22:30 UTC
Severní vítr 4 kt
Teplota -34°C
Vlhkost vzduchu 67%
Tlak 1013 hPa
Viditelnost 10 km a více
slabé sněžení

METAR: UEEE 132230Z 36002MPS 9999 -SN NSC M34/M38 Q1013 R23L/450155 NOSIG RMK QFE751

Čas: 07:53 (22:53 UTC)

Předpověď počasí

Zpráva byla vytvořena před 2 hodinami a 53 minutami, v 20:00 UTC
Předpověď platná od 13 v 21 UTC do 15 v 03 UTC
Jihovýchodní vítr 6 kt s nárazy do 16 kt
Viditelnost: 3200 m
slabé sněžení, kouřmo
Dočasný
od 13 v 21 UTC do 14 v 03 UTC
vítr z různých směrů 2 kt
Viditelnost: 0500 m
ve výšce 300 ft
sníh, mlha

TAF: UEEE 132000Z 1321/1503 14003G08MPS 3200 -SN BR NSC TEMPO 1321/1403 VRB01MPS 0500 SN FG VV003

Stav a předpovědi počasí z více než 4 000 letišť (zprávy METAR a TAF).

Červené a žluté tečky na mapě představují dostupné meteorologické stanice.

Když kurzor umístíte na tečku, zobrazí se název stanice.

Pak kliknutím zobrazíte stav a předpověď počasí.

Chcete-li změnit mapu, kliknutím na zelené tlačítko se znaménkem +mapu přiblížíte, kliknutím na zelené tlačítko se znaménkem – mapu oddálíte a kliknutím na zelené šipky přejdete na sousední mapy.


METAR-TAF: